sensor_id;sensor_type;location;lat;lon;timestamp;temperature;humidity
75451;DHT22;64029;48.244;9.188;2024-03-02T00:00:55;5.00;97.20
75451;DHT22;64029;48.244;9.188;2024-03-02T00:03:22;5.10;97.30
75451;DHT22;64029;48.244;9.188;2024-03-02T00:05:51;5.00;97.20
75451;DHT22;64029;48.244;9.188;2024-03-02T00:08:32;5.00;97.10
75451;DHT22;64029;48.244;9.188;2024-03-02T00:11:00;5.10;97.20
75451;DHT22;64029;48.244;9.188;2024-03-02T00:13:29;5.00;97.20
75451;DHT22;64029;48.244;9.188;2024-03-02T00:15:57;5.10;97.20
75451;DHT22;64029;48.244;9.188;2024-03-02T00:18:26;5.00;97.10
75451;DHT22;64029;48.244;9.188;2024-03-02T00:20:54;5.00;97.40
75451;DHT22;64029;48.244;9.188;2024-03-02T00:23:24;5.10;97.50
75451;DHT22;64029;48.244;9.188;2024-03-02T00:25:52;5.00;97.60
75451;DHT22;64029;48.244;9.188;2024-03-02T00:28:21;5.10;97.60
75451;DHT22;64029;48.244;9.188;2024-03-02T00:30:58;5.10;97.80
75451;DHT22;64029;48.244;9.188;2024-03-02T00:33:33;5.00;97.30
75451;DHT22;64029;48.244;9.188;2024-03-02T00:36:01;5.00;97.20
75451;DHT22;64029;48.244;9.188;2024-03-02T00:38:30;5.00;97.20
75451;DHT22;64029;48.244;9.188;2024-03-02T00:40:59;5.00;97.20
75451;DHT22;64029;48.244;9.188;2024-03-02T00:43:42;5.00;97.20
75451;DHT22;64029;48.244;9.188;2024-03-02T00:46:11;5.00;97.20
75451;DHT22;64029;48.244;9.188;2024-03-02T00:48:39;5.00;97.20
75451;DHT22;64029;48.244;9.188;2024-03-02T00:51:06;5.00;97.30
75451;DHT22;64029;48.244;9.188;2024-03-02T00:53:34;5.00;97.30
75451;DHT22;64029;48.244;9.188;2024-03-02T00:56:02;5.00;97.30
75451;DHT22;64029;48.244;9.188;2024-03-02T00:58:29;4.90;97.30
75451;DHT22;64029;48.244;9.188;2024-03-02T01:00:56;4.90;97.30
75451;DHT22;64029;48.244;9.188;2024-03-02T01:03:23;4.90;97.30
75451;DHT22;64029;48.244;9.188;2024-03-02T01:05:50;4.90;97.30
75451;DHT22;64029;48.244;9.188;2024-03-02T01:08:17;4.90;97.30
75451;DHT22;64029;48.244;9.188;2024-03-02T01:10:45;4.90;97.30
75451;DHT22;64029;48.244;9.188;2024-03-02T01:13:12;4.90;97.30
75451;DHT22;64029;48.244;9.188;2024-03-02T01:15:39;4.90;97.30
75451;DHT22;64029;48.244;9.188;2024-03-02T01:18:06;4.80;97.30
75451;DHT22;64029;48.244;9.188;2024-03-02T01:20:33;4.80;97.30
75451;DHT22;64029;48.244;9.188;2024-03-02T01:23:00;4.80;97.30
75451;DHT22;64029;48.244;9.188;2024-03-02T01:25:27;4.80;97.30
75451;DHT22;64029;48.244;9.188;2024-03-02T01:27:55;4.80;97.30
75451;DHT22;64029;48.244;9.188;2024-03-02T01:30:22;4.70;97.30
75451;DHT22;64029;48.244;9.188;2024-03-02T01:32:49;4.70;97.30
75451;DHT22;64029;48.244;9.188;2024-03-02T01:35:16;4.70;97.30
75451;DHT22;64029;48.244;9.188;2024-03-02T01:37:43;4.70;97.20
75451;DHT22;64029;48.244;9.188;2024-03-02T01:40:11;4.60;97.10
75451;DHT22;64029;48.244;9.188;2024-03-02T01:42:38;4.60;97.20
75451;DHT22;64029;48.244;9.188;2024-03-02T01:45:08;4.60;97.40
75451;DHT22;64029;48.244;9.188;2024-03-02T01:47:35;4.50;97.00
75451;DHT22;64029;48.244;9.188;2024-03-02T01:50:02;4.50;97.00
75451;DHT22;64029;48.244;9.188;2024-03-02T01:52:29;4.40;96.90
75451;DHT22;64029;48.244;9.188;2024-03-02T01:54:56;4.40;96.90
75451;DHT22;64029;48.244;9.188;2024-03-02T01:57:23;4.40;96.90
75451;DHT22;64029;48.244;9.188;2024-03-02T01:59:50;4.40;96.80
75451;DHT22;64029;48.244;9.188;2024-03-02T02:02:19;4.30;96.80
75451;DHT22;64029;48.244;9.188;2024-03-02T02:04:46;4.30;96.80
75451;DHT22;64029;48.244;9.188;2024-03-02T02:07:13;4.30;96.80
75451;DHT22;64029;48.244;9.188;2024-03-02T02:09:41;4.30;96.80
75451;DHT22;64029;48.244;9.188;2024-03-02T02:12:09;4.20;96.70
75451;DHT22;64029;48.244;9.188;2024-03-02T02:14:36;4.20;96.80
75451;DHT22;64029;48.244;9.188;2024-03-02T02:17:05;4.20;96.80
75451;DHT22;64029;48.244;9.188;2024-03-02T02:19:33;4.10;96.80
75451;DHT22;64029;48.244;9.188;2024-03-02T02:22:02;4.10;96.80
75451;DHT22;64029;48.244;9.188;2024-03-02T02:24:29;4.10;96.80
75451;DHT22;64029;48.244;9.188;2024-03-02T02:26:56;4.10;96.80
75451;DHT22;64029;48.244;9.188;2024-03-02T02:29:22;4.10;96.80
75451;DHT22;64029;48.244;9.188;2024-03-02T02:31:49;4.10;96.80
75451;DHT22;64029;48.244;9.188;2024-03-02T02:34:16;4.10;96.80
75451;DHT22;64029;48.244;9.188;2024-03-02T02:36:43;4.10;96.80
75451;DHT22;64029;48.244;9.188;2024-03-02T02:39:15;4.10;96.80
75451;DHT22;64029;48.244;9.188;2024-03-02T02:41:42;4.10;96.80
75451;DHT22;64029;48.244;9.188;2024-03-02T02:44:09;4.10;96.70
75451;DHT22;64029;48.244;9.188;2024-03-02T02:46:38;4.10;96.70
75451;DHT22;64029;48.244;9.188;2024-03-02T02:49:05;4.00;96.70
75451;DHT22;64029;48.244;9.188;2024-03-02T02:51:32;4.00;96.80
75451;DHT22;64029;48.244;9.188;2024-03-02T02:53:59;4.00;96.80
75451;DHT22;64029;48.244;9.188;2024-03-02T02:56:27;4.00;96.70
75451;DHT22;64029;48.244;9.188;2024-03-02T02:58:54;4.00;96.70
75451;DHT22;64029;48.244;9.188;2024-03-02T03:01:21;4.00;96.70
75451;DHT22;64029;48.244;9.188;2024-03-02T03:03:48;4.00;96.70
75451;DHT22;64029;48.244;9.188;2024-03-02T03:06:15;4.00;96.60
75451;DHT22;64029;48.244;9.188;2024-03-02T03:08:42;4.00;96.70
75451;DHT22;64029;48.244;9.188;2024-03-02T03:11:09;4.00;96.70
75451;DHT22;64029;48.244;9.188;2024-03-02T03:13:37;4.00;96.60
75451;DHT22;64029;48.244;9.188;2024-03-02T03:16:04;4.00;96.70
75451;DHT22;64029;48.244;9.188;2024-03-02T03:18:31;3.90;96.70
75451;DHT22;64029;48.244;9.188;2024-03-02T03:20:58;4.00;96.70
75451;DHT22;64029;48.244;9.188;2024-03-02T03:23:25;3.90;96.70
75451;DHT22;64029;48.244;9.188;2024-03-02T03:25:52;4.00;96.70
75451;DHT22;64029;48.244;9.188;2024-03-02T03:28:18;3.90;96.70
75451;DHT22;64029;48.244;9.188;2024-03-02T03:30:47;3.90;96.70
75451;DHT22;64029;48.244;9.188;2024-03-02T03:33:14;3.90;96.70
75451;DHT22;64029;48.244;9.188;2024-03-02T03:35:40;3.90;96.60
75451;DHT22;64029;48.244;9.188;2024-03-02T03:38:07;3.90;96.60
75451;DHT22;64029;48.244;9.188;2024-03-02T03:40:34;3.90;96.60
75451;DHT22;64029;48.244;9.188;2024-03-02T03:43:01;3.90;96.60
75451;DHT22;64029;48.244;9.188;2024-03-02T03:45:28;3.90;96.60
75451;DHT22;64029;48.244;9.188;2024-03-02T03:47:57;3.90;96.70
75451;DHT22;64029;48.244;9.188;2024-03-02T03:50:24;3.90;96.70
75451;DHT22;64029;48.244;9.188;2024-03-02T03:52:51;3.90;96.60
75451;DHT22;64029;48.244;9.188;2024-03-02T03:55:17;3.90;96.60
75451;DHT22;64029;48.244;9.188;2024-03-02T03:57:44;3.90;96.60
75451;DHT22;64029;48.244;9.188;2024-03-02T04:00:12;3.90;96.60
75451;DHT22;64029;48.244;9.188;2024-03-02T04:02:39;3.90;96.60
75451;DHT22;64029;48.244;9.188;2024-03-02T04:05:08;3.90;96.60
75451;DHT22;64029;48.244;9.188;2024-03-02T04:07:36;3.90;96.60
75451;DHT22;64029;48.244;9.188;2024-03-02T04:10:09;3.90;96.60
75451;DHT22;64029;48.244;9.188;2024-03-02T04:12:36;3.90;96.60
75451;DHT22;64029;48.244;9.188;2024-03-02T04:15:04;3.90;96.70
75451;DHT22;64029;48.244;9.188;2024-03-02T04:17:32;3.90;96.70
75451;DHT22;64029;48.244;9.188;2024-03-02T04:19:59;3.90;96.90
75451;DHT22;64029;48.244;9.188;2024-03-02T04:22:28;3.90;97.00
75451;DHT22;64029;48.244;9.188;2024-03-02T04:24:55;3.90;97.00
75451;DHT22;64029;48.244;9.188;2024-03-02T04:27:21;3.90;97.10
75451;DHT22;64029;48.244;9.188;2024-03-02T04:29:48;3.90;97.00
75451;DHT22;64029;48.244;9.188;2024-03-02T04:32:15;3.90;97.10
75451;DHT22;64029;48.244;9.188;2024-03-02T04:34:42;3.90;97.10
75451;DHT22;64029;48.244;9.188;2024-03-02T04:37:10;3.90;97.20
75451;DHT22;64029;48.244;9.188;2024-03-02T04:39:41;3.90;97.20
75451;DHT22;64029;48.244;9.188;2024-03-02T04:42:08;3.90;97.20
75451;DHT22;64029;48.244;9.188;2024-03-02T04:44:35;3.90;97.20
75451;DHT22;64029;48.244;9.188;2024-03-02T04:47:02;3.90;97.30
75451;DHT22;64029;48.244;9.188;2024-03-02T04:49:29;3.90;97.30
75451;DHT22;64029;48.244;9.188;2024-03-02T04:51:56;3.90;97.30
75451;DHT22;64029;48.244;9.188;2024-03-02T04:54:23;3.90;97.20
75451;DHT22;64029;48.244;9.188;2024-03-02T04:56:51;3.90;97.20
75451;DHT22;64029;48.244;9.188;2024-03-02T04:59:18;3.90;97.20
75451;DHT22;64029;48.244;9.188;2024-03-02T05:01:45;3.90;97.20
75451;DHT22;64029;48.244;9.188;2024-03-02T05:04:12;3.90;97.10
75451;DHT22;64029;48.244;9.188;2024-03-02T05:06:39;3.90;97.20
75451;DHT22;64029;48.244;9.188;2024-03-02T05:09:06;3.90;97.40
75451;DHT22;64029;48.244;9.188;2024-03-02T05:11:34;3.90;97.00
75451;DHT22;64029;48.244;9.188;2024-03-02T05:14:29;3.90;97.00
75451;DHT22;64029;48.244;9.188;2024-03-02T05:16:56;3.90;96.90
75451;DHT22;64029;48.244;9.188;2024-03-02T05:19:23;3.90;97.00
75451;DHT22;64029;48.244;9.188;2024-03-02T05:21:50;3.90;97.00
75451;DHT22;64029;48.244;9.188;2024-03-02T05:24:17;3.90;97.00
75451;DHT22;64029;48.244;9.188;2024-03-02T05:26:44;3.90;96.90
75451;DHT22;64029;48.244;9.188;2024-03-02T05:29:11;3.90;97.00
75451;DHT22;64029;48.244;9.188;2024-03-02T05:31:39;3.90;96.90
75451;DHT22;64029;48.244;9.188;2024-03-02T05:34:06;3.90;97.00
75451;DHT22;64029;48.244;9.188;2024-03-02T05:36:33;3.90;97.00
75451;DHT22;64029;48.244;9.188;2024-03-02T05:39:00;3.90;97.00
75451;DHT22;64029;48.244;9.188;2024-03-02T05:41:27;3.90;97.10
75451;DHT22;64029;48.244;9.188;2024-03-02T05:43:53;3.90;97.10
75451;DHT22;64029;48.244;9.188;2024-03-02T05:46:20;3.90;97.20
75451;DHT22;64029;48.244;9.188;2024-03-02T05:48:49;3.90;97.10
75451;DHT22;64029;48.244;9.188;2024-03-02T05:51:15;3.90;97.10
75451;DHT22;64029;48.244;9.188;2024-03-02T05:53:42;3.90;97.10
75451;DHT22;64029;48.244;9.188;2024-03-02T05:56:09;3.90;97.40
75451;DHT22;64029;48.244;9.188;2024-03-02T05:58:37;3.90;97.30
75451;DHT22;64029;48.244;9.188;2024-03-02T06:01:15;3.90;97.20
75451;DHT22;64029;48.244;9.188;2024-03-02T06:03:43;3.90;97.20
75451;DHT22;64029;48.244;9.188;2024-03-02T06:06:11;3.90;97.20
75451;DHT22;64029;48.244;9.188;2024-03-02T06:08:38;3.90;97.20
75451;DHT22;64029;48.244;9.188;2024-03-02T06:11:05;3.90;97.20
75451;DHT22;64029;48.244;9.188;2024-03-02T06:13:31;3.90;97.30
75451;DHT22;64029;48.244;9.188;2024-03-02T06:15:58;3.90;97.30
75451;DHT22;64029;48.244;9.188;2024-03-02T06:18:25;3.90;97.30
75451;DHT22;64029;48.244;9.188;2024-03-02T06:20:53;3.90;97.40
75451;DHT22;64029;48.244;9.188;2024-03-02T06:23:21;3.90;97.30
75451;DHT22;64029;48.244;9.188;2024-03-02T06:25:48;3.90;97.20
75451;DHT22;64029;48.244;9.188;2024-03-02T06:28:14;4.00;97.40
75451;DHT22;64029;48.244;9.188;2024-03-02T06:30:41;4.00;97.40
75451;DHT22;64029;48.244;9.188;2024-03-02T06:33:08;4.00;97.50
75451;DHT22;64029;48.244;9.188;2024-03-02T06:35:35;4.00;97.60
75451;DHT22;64029;48.244;9.188;2024-03-02T06:38:02;4.00;97.40
75451;DHT22;64029;48.244;9.188;2024-03-02T06:40:30;4.00;97.40
75451;DHT22;64029;48.244;9.188;2024-03-02T06:42:57;4.00;97.40
75451;DHT22;64029;48.244;9.188;2024-03-02T06:45:24;4.00;97.30
75451;DHT22;64029;48.244;9.188;2024-03-02T06:47:51;4.00;97.30
75451;DHT22;64029;48.244;9.188;2024-03-02T06:50:18;4.00;97.30
75451;DHT22;64029;48.244;9.188;2024-03-02T06:52:44;4.00;97.40
75451;DHT22;64029;48.244;9.188;2024-03-02T06:55:11;4.00;97.30
75451;DHT22;64029;48.244;9.188;2024-03-02T06:57:39;4.10;97.40
75451;DHT22;64029;48.244;9.188;2024-03-02T07:00:07;4.10;97.40
75451;DHT22;64029;48.244;9.188;2024-03-02T07:02:35;4.10;97.30
75451;DHT22;64029;48.244;9.188;2024-03-02T07:05:02;4.10;97.20
75451;DHT22;64029;48.244;9.188;2024-03-02T07:07:29;4.10;97.30
75451;DHT22;64029;48.244;9.188;2024-03-02T07:09:57;4.10;97.30
75451;DHT22;64029;48.244;9.188;2024-03-02T07:12:24;4.10;97.20
75451;DHT22;64029;48.244;9.188;2024-03-02T07:14:52;4.10;97.20
75451;DHT22;64029;48.244;9.188;2024-03-02T07:17:37;4.10;97.20
75451;DHT22;64029;48.244;9.188;2024-03-02T07:20:05;4.10;97.20
75451;DHT22;64029;48.244;9.188;2024-03-02T07:22:32;4.10;97.20
75451;DHT22;64029;48.244;9.188;2024-03-02T07:24:59;4.20;97.20
75451;DHT22;64029;48.244;9.188;2024-03-02T07:27:26;4.20;97.20
75451;DHT22;64029;48.244;9.188;2024-03-02T07:29:54;4.20;97.10
75451;DHT22;64029;48.244;9.188;2024-03-02T07:32:21;4.20;97.10
75451;DHT22;64029;48.244;9.188;2024-03-02T07:34:48;4.20;97.10
75451;DHT22;64029;48.244;9.188;2024-03-02T07:37:16;4.20;97.10
75451;DHT22;64029;48.244;9.188;2024-03-02T07:39:44;4.20;97.10
75451;DHT22;64029;48.244;9.188;2024-03-02T07:42:11;4.20;97.10
75451;DHT22;64029;48.244;9.188;2024-03-02T07:44:38;4.30;97.20
75451;DHT22;64029;48.244;9.188;2024-03-02T07:47:07;4.30;97.10
75451;DHT22;64029;48.244;9.188;2024-03-02T07:49:34;4.30;97.10
75451;DHT22;64029;48.244;9.188;2024-03-02T07:52:01;4.30;97.00
75451;DHT22;64029;48.244;9.188;2024-03-02T07:54:28;4.30;97.10
75451;DHT22;64029;48.244;9.188;2024-03-02T07:56:55;4.30;97.10
75451;DHT22;64029;48.244;9.188;2024-03-02T07:59:22;4.30;97.10
75451;DHT22;64029;48.244;9.188;2024-03-02T08:01:49;4.30;97.00
75451;DHT22;64029;48.244;9.188;2024-03-02T08:04:17;4.40;97.70
75451;DHT22;64029;48.244;9.188;2024-03-02T08:06:45;4.40;97.40
75451;DHT22;64029;48.244;9.188;2024-03-02T08:09:12;4.40;97.30
75451;DHT22;64029;48.244;9.188;2024-03-02T08:11:39;4.40;97.30
75451;DHT22;64029;48.244;9.188;2024-03-02T08:14:06;4.40;97.30
75451;DHT22;64029;48.244;9.188;2024-03-02T08:16:33;4.50;97.30
75451;DHT22;64029;48.244;9.188;2024-03-02T08:19:00;4.50;97.30
75451;DHT22;64029;48.244;9.188;2024-03-02T08:21:28;4.50;97.30
75451;DHT22;64029;48.244;9.188;2024-03-02T08:23:56;4.60;97.70
75451;DHT22;64029;48.244;9.188;2024-03-02T08:26:24;4.60;97.70
75451;DHT22;64029;48.244;9.188;2024-03-02T08:28:51;4.60;97.60
75451;DHT22;64029;48.244;9.188;2024-03-02T08:31:17;4.70;97.60
75451;DHT22;64029;48.244;9.188;2024-03-02T08:33:44;4.70;97.60
75451;DHT22;64029;48.244;9.188;2024-03-02T08:36:11;4.80;97.60
75451;DHT22;64029;48.244;9.188;2024-03-02T08:38:39;4.80;97.60
75451;DHT22;64029;48.244;9.188;2024-03-02T08:41:06;4.80;97.60
75451;DHT22;64029;48.244;9.188;2024-03-02T08:43:34;4.90;97.70
75451;DHT22;64029;48.244;9.188;2024-03-02T08:46:01;4.90;97.80
75451;DHT22;64029;48.244;9.188;2024-03-02T08:48:28;5.00;97.80
75451;DHT22;64029;48.244;9.188;2024-03-02T08:50:54;5.00;97.80
75451;DHT22;64029;48.244;9.188;2024-03-02T08:53:21;5.10;97.80
75451;DHT22;64029;48.244;9.188;2024-03-02T08:55:49;5.10;97.80
75451;DHT22;64029;48.244;9.188;2024-03-02T08:58:16;5.20;98.00
75451;DHT22;64029;48.244;9.188;2024-03-02T09:00:43;5.20;97.90
75451;DHT22;64029;48.244;9.188;2024-03-02T09:03:10;5.30;98.00
75451;DHT22;64029;48.244;9.188;2024-03-02T09:05:37;5.30;98.00
75451;DHT22;64029;48.244;9.188;2024-03-02T09:08:04;5.40;98.00
75451;DHT22;64029;48.244;9.188;2024-03-02T09:10:31;5.40;98.00
75451;DHT22;64029;48.244;9.188;2024-03-02T09:12:59;5.50;98.00
75451;DHT22;64029;48.244;9.188;2024-03-02T09:15:26;5.50;98.00
75451;DHT22;64029;48.244;9.188;2024-03-02T09:17:53;5.50;98.00
75451;DHT22;64029;48.244;9.188;2024-03-02T09:20:20;5.60;98.10
75451;DHT22;64029;48.244;9.188;2024-03-02T09:22:47;5.60;98.10
75451;DHT22;64029;48.244;9.188;2024-03-02T09:25:14;5.70;98.10
75451;DHT22;64029;48.244;9.188;2024-03-02T09:27:41;5.70;98.30
75451;DHT22;64029;48.244;9.188;2024-03-02T09:30:10;5.70;98.20
75451;DHT22;64029;48.244;9.188;2024-03-02T09:32:39;5.70;98.20
75451;DHT22;64029;48.244;9.188;2024-03-02T09:35:06;5.80;98.20
75451;DHT22;64029;48.244;9.188;2024-03-02T09:37:33;5.80;98.10
75451;DHT22;64029;48.244;9.188;2024-03-02T09:40:01;5.80;98.00
75451;DHT22;64029;48.244;9.188;2024-03-02T09:42:28;5.80;98.00
75451;DHT22;64029;48.244;9.188;2024-03-02T09:44:55;5.80;98.20
75451;DHT22;64029;48.244;9.188;2024-03-02T09:47:24;5.90;98.10
75451;DHT22;64029;48.244;9.188;2024-03-02T09:49:51;6.00;98.30
75451;DHT22;64029;48.244;9.188;2024-03-02T09:52:19;6.00;98.10
75451;DHT22;64029;48.244;9.188;2024-03-02T09:54:47;6.00;98.00
75451;DHT22;64029;48.244;9.188;2024-03-02T09:57:14;6.00;98.00
75451;DHT22;64029;48.244;9.188;2024-03-02T09:59:41;6.00;97.90
75451;DHT22;64029;48.244;9.188;2024-03-02T10:02:08;6.00;97.90
75451;DHT22;64029;48.244;9.188;2024-03-02T10:04:36;6.20;98.10
75451;DHT22;64029;48.244;9.188;2024-03-02T10:07:14;6.20;98.00
75451;DHT22;64029;48.244;9.188;2024-03-02T10:09:42;6.20;98.00
75451;DHT22;64029;48.244;9.188;2024-03-02T10:12:10;6.20;98.10
75451;DHT22;64029;48.244;9.188;2024-03-02T10:14:38;6.30;97.90
75451;DHT22;64029;48.244;9.188;2024-03-02T10:17:06;6.40;97.90
75451;DHT22;64029;48.244;9.188;2024-03-02T10:19:35;6.30;97.80
75451;DHT22;64029;48.244;9.188;2024-03-02T10:22:03;6.40;97.80
75451;DHT22;64029;48.244;9.188;2024-03-02T10:24:36;6.50;97.80
75451;DHT22;64029;48.244;9.188;2024-03-02T10:27:08;6.50;97.60
75451;DHT22;64029;48.244;9.188;2024-03-02T10:29:39;6.50;97.70
75451;DHT22;64029;48.244;9.188;2024-03-02T10:32:12;6.50;97.30
75451;DHT22;64029;48.244;9.188;2024-03-02T10:34:42;6.60;97.20
75451;DHT22;64029;48.244;9.188;2024-03-02T10:37:10;6.70;96.60
75451;DHT22;64029;48.244;9.188;2024-03-02T10:39:40;6.70;96.50
75451;DHT22;64029;48.244;9.188;2024-03-02T10:42:09;6.80;96.50
75451;DHT22;64029;48.244;9.188;2024-03-02T10:44:36;6.90;96.20
75451;DHT22;64029;48.244;9.188;2024-03-02T10:47:04;6.90;96.30
75451;DHT22;64029;48.244;9.188;2024-03-02T10:49:34;6.90;96.40
75451;DHT22;64029;48.244;9.188;2024-03-02T10:52:03;7.00;95.80
75451;DHT22;64029;48.244;9.188;2024-03-02T10:54:30;7.00;95.90
75451;DHT22;64029;48.244;9.188;2024-03-02T10:57:02;7.20;95.60
75451;DHT22;64029;48.244;9.188;2024-03-02T10:59:35;7.20;95.60
75451;DHT22;64029;48.244;9.188;2024-03-02T11:02:03;7.10;95.90
75451;DHT22;64029;48.244;9.188;2024-03-02T11:04:37;7.10;96.10
75451;DHT22;64029;48.244;9.188;2024-03-02T11:07:15;7.10;96.20
75451;DHT22;64029;48.244;9.188;2024-03-02T11:12:38;7.20;96.30
75451;DHT22;64029;48.244;9.188;2024-03-02T11:15:11;7.50;95.80
75451;DHT22;64029;48.244;9.188;2024-03-02T11:17:39;7.50;95.70
75451;DHT22;64029;48.244;9.188;2024-03-02T11:20:08;7.70;95.10
75451;DHT22;64029;48.244;9.188;2024-03-02T11:22:37;7.70;95.00
75451;DHT22;64029;48.244;9.188;2024-03-02T11:25:05;7.70;95.00
75451;DHT22;64029;48.244;9.188;2024-03-02T11:28:05;7.70;95.20
75451;DHT22;64029;48.244;9.188;2024-03-02T11:30:49;7.80;95.40
75451;DHT22;64029;48.244;9.188;2024-03-02T11:33:26;7.90;94.80
75451;DHT22;64029;48.244;9.188;2024-03-02T11:35:57;7.90;95.00
75451;DHT22;64029;48.244;9.188;2024-03-02T11:38:32;7.90;95.00
75451;DHT22;64029;48.244;9.188;2024-03-02T11:41:00;8.00;94.90
75451;DHT22;64029;48.244;9.188;2024-03-02T11:43:28;8.10;94.60
75451;DHT22;64029;48.244;9.188;2024-03-02T11:45:58;8.10;94.70
75451;DHT22;64029;48.244;9.188;2024-03-02T11:48:26;8.30;93.70
75451;DHT22;64029;48.244;9.188;2024-03-02T11:50:53;8.20;94.40
75451;DHT22;64029;48.244;9.188;2024-03-02T11:53:24;8.10;94.60
75451;DHT22;64029;48.244;9.188;2024-03-02T11:55:59;8.20;94.40
75451;DHT22;64029;48.244;9.188;2024-03-02T11:58:27;8.10;94.40
75451;DHT22;64029;48.244;9.188;2024-03-02T12:00:55;8.10;94.80
75451;DHT22;64029;48.244;9.188;2024-03-02T12:03:24;8.20;93.90
75451;DHT22;64029;48.244;9.188;2024-03-02T12:05:53;8.30;93.90
75451;DHT22;64029;48.244;9.188;2024-03-02T12:08:20;8.30;93.70
75451;DHT22;64029;48.244;9.188;2024-03-02T12:11:00;8.30;94.20
75451;DHT22;64029;48.244;9.188;2024-03-02T12:13:27;8.40;93.00
75451;DHT22;64029;48.244;9.188;2024-03-02T12:16:04;8.60;92.30
75451;DHT22;64029;48.244;9.188;2024-03-02T12:18:58;8.50;92.10
75451;DHT22;64029;48.244;9.188;2024-03-02T12:21:30;8.50;92.90
75451;DHT22;64029;48.244;9.188;2024-03-02T12:23:59;8.50;92.80
75451;DHT22;64029;48.244;9.188;2024-03-02T12:26:31;8.60;91.70
75451;DHT22;64029;48.244;9.188;2024-03-02T12:29:10;8.50;92.40
75451;DHT22;64029;48.244;9.188;2024-03-02T12:31:39;8.50;92.70
75451;DHT22;64029;48.244;9.188;2024-03-02T12:34:10;8.60;91.20
75451;DHT22;64029;48.244;9.188;2024-03-02T12:36:38;8.60;92.30
75451;DHT22;64029;48.244;9.188;2024-03-02T12:39:07;8.70;90.00
75451;DHT22;64029;48.244;9.188;2024-03-02T12:41:58;8.80;89.50
75451;DHT22;64029;48.244;9.188;2024-03-02T12:44:31;8.70;90.70
75451;DHT22;64029;48.244;9.188;2024-03-02T12:50:19;8.70;91.70
75451;DHT22;64029;48.244;9.188;2024-03-02T12:53:29;8.70;91.90
75451;DHT22;64029;48.244;9.188;2024-03-02T12:56:37;8.70;91.60
75451;DHT22;64029;48.244;9.188;2024-03-02T12:59:27;8.80;90.60
75451;DHT22;64029;48.244;9.188;2024-03-02T13:02:21;8.90;90.30
75451;DHT22;64029;48.244;9.188;2024-03-02T13:05:16;9.10;88.50
75451;DHT22;64029;48.244;9.188;2024-03-02T13:07:53;9.00;90.30
75451;DHT22;64029;48.244;9.188;2024-03-02T13:10:21;8.90;90.90
75451;DHT22;64029;48.244;9.188;2024-03-02T13:12:48;9.00;91.00
75451;DHT22;64029;48.244;9.188;2024-03-02T13:15:17;9.00;90.40
75451;DHT22;64029;48.244;9.188;2024-03-02T13:17:44;9.20;87.80
75451;DHT22;64029;48.244;9.188;2024-03-02T13:20:11;9.10;90.40
75451;DHT22;64029;48.244;9.188;2024-03-02T13:22:39;9.10;88.20
75451;DHT22;64029;48.244;9.188;2024-03-02T13:25:06;9.10;89.70
75451;DHT22;64029;48.244;9.188;2024-03-02T13:27:35;9.30;85.10
75451;DHT22;64029;48.244;9.188;2024-03-02T13:30:04;9.20;85.50
75451;DHT22;64029;48.244;9.188;2024-03-02T13:32:35;9.20;88.90
75451;DHT22;64029;48.244;9.188;2024-03-02T13:35:02;9.20;86.00
75451;DHT22;64029;48.244;9.188;2024-03-02T13:37:29;9.20;87.50
75451;DHT22;64029;48.244;9.188;2024-03-02T13:39:56;9.20;88.50
75451;DHT22;64029;48.244;9.188;2024-03-02T13:42:24;9.20;89.10
75451;DHT22;64029;48.244;9.188;2024-03-02T13:44:51;9.20;89.90
75451;DHT22;64029;48.244;9.188;2024-03-02T13:47:18;9.20;90.00
75451;DHT22;64029;48.244;9.188;2024-03-02T13:49:47;9.30;89.10
75451;DHT22;64029;48.244;9.188;2024-03-02T13:52:14;9.30;90.00
75451;DHT22;64029;48.244;9.188;2024-03-02T13:54:43;9.30;88.60
75451;DHT22;64029;48.244;9.188;2024-03-02T13:57:10;9.30;88.80
75451;DHT22;64029;48.244;9.188;2024-03-02T13:59:38;9.30;88.10
75451;DHT22;64029;48.244;9.188;2024-03-02T14:02:06;9.40;85.50
75451;DHT22;64029;48.244;9.188;2024-03-02T14:04:34;9.40;87.90
75451;DHT22;64029;48.244;9.188;2024-03-02T14:07:03;9.40;88.50
75451;DHT22;64029;48.244;9.188;2024-03-02T14:09:32;9.40;88.70
75451;DHT22;64029;48.244;9.188;2024-03-02T14:11:59;9.40;83.20
75451;DHT22;64029;48.244;9.188;2024-03-02T14:14:27;9.40;86.20
75451;DHT22;64029;48.244;9.188;2024-03-02T14:16:54;9.40;86.70
75451;DHT22;64029;48.244;9.188;2024-03-02T14:19:21;9.50;86.20
75451;DHT22;64029;48.244;9.188;2024-03-02T14:21:48;9.50;86.50
75451;DHT22;64029;48.244;9.188;2024-03-02T14:24:17;9.50;85.60
75451;DHT22;64029;48.244;9.188;2024-03-02T14:26:45;9.50;86.20
75451;DHT22;64029;48.244;9.188;2024-03-02T14:29:12;9.50;85.80
75451;DHT22;64029;48.244;9.188;2024-03-02T14:31:39;9.50;85.70
75451;DHT22;64029;48.244;9.188;2024-03-02T14:34:05;9.50;86.50
75451;DHT22;64029;48.244;9.188;2024-03-02T14:36:32;9.50;87.10
75451;DHT22;64029;48.244;9.188;2024-03-02T14:38:59;9.50;86.90
75451;DHT22;64029;48.244;9.188;2024-03-02T14:41:27;9.50;87.40
75451;DHT22;64029;48.244;9.188;2024-03-02T14:43:55;9.50;87.00
75451;DHT22;64029;48.244;9.188;2024-03-02T14:46:22;9.60;83.00
75451;DHT22;64029;48.244;9.188;2024-03-02T14:48:48;9.60;85.70
75451;DHT22;64029;48.244;9.188;2024-03-02T14:51:15;9.60;86.10
75451;DHT22;64029;48.244;9.188;2024-03-02T14:53:42;9.60;86.30
75451;DHT22;64029;48.244;9.188;2024-03-02T14:56:09;9.60;86.50
75451;DHT22;64029;48.244;9.188;2024-03-02T14:58:39;9.60;83.40
75451;DHT22;64029;48.244;9.188;2024-03-02T15:01:06;9.70;81.80
75451;DHT22;64029;48.244;9.188;2024-03-02T15:03:35;9.70;84.00
75451;DHT22;64029;48.244;9.188;2024-03-02T15:06:02;9.60;85.20
75451;DHT22;64029;48.244;9.188;2024-03-02T15:08:29;9.60;86.00
75451;DHT22;64029;48.244;9.188;2024-03-02T15:10:57;9.60;86.60
75451;DHT22;64029;48.244;9.188;2024-03-02T15:13:25;9.60;84.00
75451;DHT22;64029;48.244;9.188;2024-03-02T15:15:54;9.60;85.90
75451;DHT22;64029;48.244;9.188;2024-03-02T15:18:21;9.60;85.20
75451;DHT22;64029;48.244;9.188;2024-03-02T15:20:48;9.60;86.40
75451;DHT22;64029;48.244;9.188;2024-03-02T15:23:15;9.60;87.70
75451;DHT22;64029;48.244;9.188;2024-03-02T15:25:42;9.50;87.00
75451;DHT22;64029;48.244;9.188;2024-03-02T15:28:09;9.50;86.70
75451;DHT22;64029;48.244;9.188;2024-03-02T15:30:36;9.50;84.70
75451;DHT22;64029;48.244;9.188;2024-03-02T15:33:04;9.50;85.50
75451;DHT22;64029;48.244;9.188;2024-03-02T15:35:31;9.50;84.90
75451;DHT22;64029;48.244;9.188;2024-03-02T15:37:58;9.50;82.60
75451;DHT22;64029;48.244;9.188;2024-03-02T15:40:25;9.50;85.20
75451;DHT22;64029;48.244;9.188;2024-03-02T15:42:53;9.50;86.20
75451;DHT22;64029;48.244;9.188;2024-03-02T15:45:20;9.40;86.60
75451;DHT22;64029;48.244;9.188;2024-03-02T15:47:47;9.40;86.10
75451;DHT22;64029;48.244;9.188;2024-03-02T15:50:16;9.40;86.00
75451;DHT22;64029;48.244;9.188;2024-03-02T15:52:42;9.40;87.00
75451;DHT22;64029;48.244;9.188;2024-03-02T15:55:10;9.40;86.90
75451;DHT22;64029;48.244;9.188;2024-03-02T15:57:37;9.40;87.50
75451;DHT22;64029;48.244;9.188;2024-03-02T16:00:05;9.40;86.40